createdAt,value
2023-04-05T00:01:18.490Z,-5.01
2023-04-05T00:04:24.827Z,-5.10
2023-04-05T00:07:36.250Z,-5.16
2023-04-05T00:10:42.989Z,-5.16
2023-04-05T00:13:53.146Z,-5.20
2023-04-05T00:16:59.214Z,-5.22
2023-04-05T00:20:08.337Z,-5.28
2023-04-05T00:23:14.986Z,-5.26
2023-04-05T00:26:22.635Z,-5.32
2023-04-05T00:29:36.185Z,-5.29
2023-04-05T00:32:43.038Z,-5.27
2023-04-05T00:35:49.830Z,-5.26
2023-04-05T00:38:56.786Z,-5.28
2023-04-05T00:42:06.471Z,-5.27
2023-04-05T00:45:17.449Z,-5.32
2023-04-05T00:48:33.399Z,-5.36
2023-04-05T00:51:42.419Z,-5.31
2023-04-05T00:54:49.636Z,-5.26
2023-04-05T00:58:11.538Z,-5.23
2023-04-05T01:01:38.354Z,-5.27
2023-04-05T01:04:50.898Z,-5.35
2023-04-05T01:08:11.145Z,-5.30
2023-04-05T01:11:22.437Z,-5.27
2023-04-05T01:14:28.789Z,-5.28
2023-04-05T01:17:39.747Z,-5.25
2023-04-05T01:20:58.554Z,-5.27
2023-04-05T01:24:36.372Z,-5.29
2023-04-05T01:28:16.319Z,-5.24
2023-04-05T01:31:40.494Z,-5.23
2023-04-05T01:34:57.362Z,-5.23
2023-04-05T01:38:15.756Z,-5.18
2023-04-05T01:41:22.094Z,-5.12
2023-04-05T01:44:31.532Z,-5.14
2023-04-05T01:47:40.075Z,-5.11
2023-04-05T01:50:48.431Z,-4.98
2023-04-05T01:53:54.543Z,-4.81
2023-04-05T01:57:01.428Z,-4.76
2023-04-05T02:00:13.620Z,-4.61
2023-04-05T02:03:23.073Z,-4.48
2023-04-05T02:06:29.334Z,-4.39
2023-04-05T02:09:36.062Z,-4.35
2023-04-05T02:12:42.053Z,-4.29
2023-04-05T02:15:52.383Z,-4.14
2023-04-05T02:19:02.689Z,-4.15
2023-04-05T02:22:09.875Z,-4.05
2023-04-05T02:25:16.253Z,-4.01
2023-04-05T02:28:24.466Z,-3.94
2023-04-05T02:31:33.158Z,-3.89
2023-04-05T02:34:43.235Z,-3.70
2023-04-05T02:37:49.211Z,-3.58
2023-04-05T02:40:55.957Z,-3.53
2023-04-05T02:44:02.066Z,-3.52
2023-04-05T02:47:10.591Z,-3.50
2023-04-05T02:50:20.943Z,-3.48
2023-04-05T02:53:28.120Z,-3.38
2023-04-05T02:56:39.739Z,-3.26
2023-04-05T02:59:52.442Z,-3.21
2023-04-05T03:03:00.290Z,-3.16
2023-04-05T03:06:13.774Z,-3.20
2023-04-05T03:09:27.901Z,-3.27
2023-04-05T03:12:38.751Z,-3.25
2023-04-05T03:15:47.488Z,-3.24
2023-04-05T03:18:57.893Z,-3.35
2023-04-05T03:22:06.528Z,-3.49
2023-04-05T03:25:17.696Z,-3.56
2023-04-05T03:28:27.195Z,-3.69
2023-04-05T03:31:39.293Z,-3.73
2023-04-05T03:34:48.206Z,-3.81
2023-04-05T03:38:00.271Z,-3.84
2023-04-05T03:41:07.177Z,-3.83
2023-04-05T03:44:15.394Z,-3.91
2023-04-05T03:47:23.462Z,-4.09
2023-04-05T03:50:32.298Z,-4.09
2023-04-05T03:53:41.102Z,-4.15
2023-04-05T03:56:48.618Z,-4.17
2023-04-05T04:00:00.321Z,-4.22
2023-04-05T04:03:10.180Z,-4.28
2023-04-05T04:06:20.480Z,-4.31
2023-04-05T04:09:31.139Z,-4.33
2023-04-05T04:12:44.592Z,-4.25
2023-04-05T04:15:51.809Z,-4.16
2023-04-05T04:19:14.005Z,-4.08
2023-04-05T04:22:38.957Z,-4.04
2023-04-05T04:26:01.983Z,-3.96
2023-04-05T04:29:31.384Z,-3.98
2023-04-05T04:32:56.566Z,-3.95
2023-04-05T04:36:41.507Z,-3.91
2023-04-05T04:40:26.009Z,-3.95
2023-04-05T04:43:47.839Z,-3.93
2023-04-05T04:47:04.451Z,-3.81
2023-04-05T04:50:26.198Z,-3.67
2023-04-05T04:53:32.181Z,-3.46
2023-04-05T04:56:39.131Z,-3.33
2023-04-05T04:59:47.670Z,-3.27
2023-04-05T05:02:55.387Z,-3.12
2023-04-05T05:06:02.938Z,-3.08
2023-04-05T05:09:12.053Z,-2.96
2023-04-05T05:12:30.372Z,-2.88
2023-04-05T05:15:45.342Z,-2.74
2023-04-05T05:18:51.508Z,-2.65
2023-04-05T05:21:58.333Z,-2.47
2023-04-05T05:25:04.111Z,-2.42
2023-04-05T05:28:11.160Z,-2.31
2023-04-05T05:31:20.312Z,-2.21
2023-04-05T05:34:28.420Z,-2.08
2023-04-05T05:37:38.130Z,-1.92
2023-04-05T05:40:44.986Z,-1.97
2023-04-05T05:43:51.034Z,-1.86
2023-04-05T05:47:00.794Z,-1.84
2023-04-05T05:50:07.137Z,-1.67
2023-04-05T05:53:13.837Z,-1.54
2023-04-05T05:56:19.889Z,-1.42
2023-04-05T05:59:26.700Z,-1.67
2023-04-05T06:02:35.497Z,-1.88
2023-04-05T06:05:44.081Z,-1.80
2023-04-05T06:08:51.948Z,-1.67
2023-04-05T06:11:59.342Z,-1.65
2023-04-05T06:15:18.540Z,-1.60
2023-04-05T06:18:33.584Z,-1.61
2023-04-05T06:21:39.979Z,-1.55
2023-04-05T06:24:46.712Z,-1.52
2023-04-05T06:27:54.386Z,-1.44
2023-04-05T06:31:02.658Z,-0.72
2023-04-05T06:34:11.242Z,0.66
2023-04-05T06:37:18.146Z,0.16
2023-04-05T06:40:24.341Z,-0.35
2023-04-05T06:43:31.179Z,-0.87
2023-04-05T06:46:37.164Z,0.02
2023-04-05T06:49:46.831Z,0.52
2023-04-05T06:52:52.842Z,0.71
2023-04-05T06:56:02.050Z,0.30
2023-04-05T06:59:08.143Z,0.05
2023-04-05T07:02:16.808Z,0.08
2023-04-05T07:05:26.030Z,0.75
2023-04-05T07:08:35.885Z,1.79
2023-04-05T07:11:41.850Z,2.78
2023-04-05T07:14:48.543Z,4.03
2023-04-05T07:17:54.529Z,4.36
2023-04-05T07:21:04.229Z,4.72
2023-04-05T07:24:17.539Z,5.26
2023-04-05T07:27:24.666Z,5.71
2023-04-05T07:30:32.220Z,5.46
2023-04-05T07:33:39.035Z,6.78
2023-04-05T07:36:50.652Z,7.99
2023-04-05T07:39:58.699Z,7.18
2023-04-05T07:43:05.360Z,6.45
2023-04-05T07:46:12.132Z,6.30
2023-04-05T07:49:18.237Z,7.24
2023-04-05T07:52:27.656Z,8.83
2023-04-05T07:55:34.284Z,7.33
2023-04-05T07:58:42.549Z,7.60
2023-04-05T08:01:48.424Z,6.60
2023-04-05T08:04:55.152Z,6.65
2023-04-05T08:08:04.092Z,6.58
2023-04-05T08:11:10.984Z,6.30
2023-04-05T08:14:19.392Z,6.90
2023-04-05T08:17:27.430Z,6.96
2023-04-05T08:20:39.906Z,7.83
2023-04-05T08:23:57.342Z,5.61
2023-04-05T08:27:03.280Z,6.25
2023-04-05T08:30:12.152Z,6.56
2023-04-05T08:33:18.042Z,5.17
2023-04-05T08:36:26.043Z,4.67
2023-04-05T08:39:34.882Z,4.02
2023-04-05T08:42:55.433Z,4.23
2023-04-05T08:46:05.193Z,3.74
2023-04-05T08:49:12.555Z,3.48
2023-04-05T08:52:19.417Z,3.45
2023-04-05T08:55:29.697Z,4.05
2023-04-05T08:58:41.693Z,4.10
2023-04-05T09:01:51.803Z,4.90
2023-04-05T09:04:58.635Z,6.39
2023-04-05T09:08:06.453Z,6.92
2023-04-05T09:11:22.411Z,6.61
2023-04-05T09:14:33.398Z,5.64
2023-04-05T09:17:44.795Z,5.05
2023-04-05T09:20:51.629Z,4.23
2023-04-05T09:23:58.117Z,3.17
2023-04-05T09:27:12.850Z,3.09
2023-04-05T09:30:34.235Z,3.87
2023-04-05T09:33:50.069Z,4.35
2023-04-05T09:36:56.680Z,5.31
2023-04-05T09:40:16.349Z,5.14
2023-04-05T09:43:43.532Z,6.38
2023-04-05T09:46:50.303Z,6.93
2023-04-05T09:49:56.821Z,6.44
2023-04-05T09:53:16.448Z,5.49
2023-04-05T09:56:23.823Z,4.79
2023-04-05T09:59:33.785Z,5.44
2023-04-05T10:02:41.988Z,5.69
2023-04-05T10:05:48.944Z,5.60
2023-04-05T10:08:55.961Z,5.20
2023-04-05T10:12:08.081Z,4.86
2023-04-05T10:15:17.109Z,4.10
2023-04-05T10:18:40.051Z,4.11
2023-04-05T10:21:51.200Z,5.76
2023-04-05T10:25:08.287Z,6.75
2023-04-05T10:28:20.990Z,6.12
2023-04-05T10:31:49.184Z,6.72
2023-04-05T10:35:07.560Z,7.50
2023-04-05T10:38:27.695Z,7.10
2023-04-05T10:41:43.242Z,6.46
2023-04-05T10:45:00.652Z,5.97
2023-04-05T10:48:22.110Z,5.28
2023-04-05T10:51:30.057Z,4.66
2023-04-05T10:54:38.871Z,5.64
2023-04-05T10:57:47.739Z,7.12
2023-04-05T11:00:57.318Z,7.26
2023-04-05T11:04:17.803Z,6.09
2023-04-05T11:07:23.809Z,5.62
2023-04-05T11:10:32.661Z,6.04
2023-04-05T11:13:53.356Z,6.58
2023-04-05T11:17:00.360Z,6.68
2023-04-05T11:20:15.925Z,6.15
2023-04-05T11:23:26.578Z,5.76
2023-04-05T11:26:37.266Z,5.96
2023-04-05T11:29:54.904Z,5.69
2023-04-05T11:33:01.066Z,5.82
2023-04-05T11:36:11.566Z,6.39
2023-04-05T11:39:31.616Z,6.35
2023-04-05T11:42:41.583Z,6.84
2023-04-05T11:45:49.069Z,7.95
2023-04-05T11:48:55.854Z,8.08
2023-04-05T11:52:15.932Z,6.55
2023-04-05T11:55:30.279Z,5.71
2023-04-05T11:58:37.815Z,5.41
2023-04-05T12:01:48.447Z,4.43
2023-04-05T12:04:59.353Z,3.34
2023-04-05T12:08:08.973Z,3.06
2023-04-05T12:11:15.767Z,3.18
2023-04-05T12:14:27.283Z,3.05
2023-04-05T12:17:51.012Z,3.53
2023-04-05T12:20:58.555Z,4.74
2023-04-05T12:24:07.933Z,5.07
2023-04-05T12:27:15.163Z,4.73
2023-04-05T12:30:24.210Z,4.45
2023-04-05T12:33:33.359Z,4.37
2023-04-05T12:36:40.095Z,5.45
2023-04-05T12:39:49.638Z,5.66
2023-04-05T12:42:56.536Z,5.29
2023-04-05T12:46:05.272Z,5.05
2023-04-05T12:49:21.741Z,4.27
2023-04-05T12:52:35.362Z,4.59
2023-04-05T12:55:52.282Z,4.39
2023-04-05T12:59:01.924Z,3.93
2023-04-05T13:02:09.061Z,4.11
2023-04-05T13:05:16.536Z,5.18
2023-04-05T13:08:23.332Z,5.30
2023-04-05T13:11:32.864Z,5.87
2023-04-05T13:14:39.232Z,5.59
2023-04-05T13:17:50.386Z,4.92
2023-04-05T13:20:56.475Z,5.56
2023-04-05T13:24:03.405Z,5.65
2023-04-05T13:27:11.942Z,6.12
2023-04-05T13:30:19.934Z,5.73
2023-04-05T13:33:26.368Z,5.32
2023-04-05T13:36:33.076Z,5.32
2023-04-05T13:39:39.173Z,4.71
2023-04-05T13:42:49.335Z,4.27
2023-04-05T13:45:57.798Z,4.12
2023-04-05T13:49:04.491Z,4.44
2023-04-05T13:52:10.588Z,4.62
2023-04-05T13:55:18.272Z,4.87
2023-04-05T13:58:26.992Z,4.45
2023-04-05T14:01:37.809Z,4.12
2023-04-05T14:04:44.531Z,3.85
2023-04-05T14:07:51.410Z,4.03
2023-04-05T14:11:00.824Z,4.03
2023-04-05T14:14:12.961Z,3.92
2023-04-05T14:17:33.635Z,4.05
2023-04-05T14:20:40.688Z,4.24
2023-04-05T14:23:46.817Z,4.03
2023-04-05T14:26:53.527Z,4.22
2023-04-05T14:30:08.747Z,4.02
2023-04-05T14:33:17.269Z,4.17
2023-04-05T14:36:23.358Z,3.78
2023-04-05T14:39:30.625Z,3.86
2023-04-05T14:42:48.477Z,3.79
2023-04-05T14:45:59.027Z,3.62
2023-04-05T14:49:18.214Z,3.31
2023-04-05T14:52:25.192Z,3.15
2023-04-05T14:55:31.344Z,3.13
2023-04-05T14:58:38.156Z,2.99
2023-04-05T15:01:53.748Z,3.06
2023-04-05T15:05:00.954Z,3.42
2023-04-05T15:08:07.904Z,3.51
2023-04-05T15:11:15.147Z,3.75
2023-04-05T15:14:31.035Z,3.82
2023-04-05T15:17:41.557Z,3.99
2023-04-05T15:21:02.983Z,3.99
2023-04-05T15:24:21.226Z,4.09
2023-04-05T15:27:27.349Z,3.51
2023-04-05T15:30:35.382Z,3.42
2023-04-05T15:33:44.039Z,3.39
2023-04-05T15:36:52.643Z,3.60
2023-04-05T15:39:59.643Z,3.47
2023-04-05T15:43:14.074Z,3.31
2023-04-05T15:46:20.091Z,3.07
2023-04-05T15:49:31.723Z,3.08
2023-04-05T15:52:41.160Z,3.12
2023-04-05T15:55:47.940Z,3.02
2023-04-05T15:58:53.993Z,2.97
2023-04-05T16:02:00.827Z,2.75
2023-04-05T16:05:10.135Z,2.55
2023-04-05T16:08:19.428Z,2.55
2023-04-05T16:11:25.691Z,2.46
2023-04-05T16:14:32.827Z,2.62
2023-04-05T16:17:38.832Z,2.63
2023-04-05T16:20:48.633Z,2.67
2023-04-05T16:24:01.393Z,2.63
2023-04-05T16:27:08.360Z,2.55
2023-04-05T16:30:15.270Z,2.37
2023-04-05T16:33:22.108Z,2.33
2023-04-05T16:36:35.618Z,2.25
2023-04-05T16:39:42.386Z,2.09
2023-04-05T16:42:51.197Z,2.14
2023-04-05T16:45:58.141Z,2.28
2023-04-05T16:49:23.996Z,2.30
2023-04-05T16:52:34.270Z,2.42
2023-04-05T16:55:46.739Z,2.35
2023-04-05T16:59:06.714Z,2.31
2023-04-05T17:02:24.507Z,2.26
2023-04-05T17:05:38.573Z,2.09
2023-04-05T17:08:49.465Z,1.93
2023-04-05T17:11:56.547Z,2.03
2023-04-05T17:15:03.361Z,2.06
2023-04-05T17:18:10.262Z,1.98
2023-04-05T17:21:23.338Z,1.87
2023-04-05T17:24:37.630Z,1.84
2023-04-05T17:27:43.593Z,1.72
2023-04-05T17:30:50.742Z,1.79
2023-04-05T17:33:57.391Z,1.78
2023-04-05T17:37:12.205Z,1.69
2023-04-05T17:40:21.732Z,1.49
2023-04-05T17:43:32.993Z,1.41
2023-04-05T17:46:46.282Z,1.29
2023-04-05T17:49:59.996Z,1.22
2023-04-05T17:53:06.500Z,1.22
2023-04-05T17:56:16.248Z,1.19
2023-04-05T17:59:22.206Z,1.14
2023-04-05T18:02:29.379Z,1.05
2023-04-05T18:05:36.574Z,0.92
2023-04-05T18:08:43.775Z,0.81
2023-04-05T18:11:53.579Z,0.76
2023-04-05T18:15:00.427Z,0.64
2023-04-05T18:18:26.345Z,0.54
2023-04-05T18:21:37.922Z,0.45
2023-04-05T18:24:46.731Z,0.40
2023-04-05T18:27:56.217Z,0.30
2023-04-05T18:31:02.353Z,0.25
2023-04-05T18:34:09.246Z,0.16
2023-04-05T18:37:17.624Z,0.06
2023-04-05T18:40:47.047Z,-0.00
2023-04-05T18:43:57.630Z,0.05
2023-04-05T18:47:05.159Z,0.08
2023-04-05T18:50:29.507Z,0.10
2023-04-05T18:53:36.874Z,0.15
2023-04-05T18:56:43.012Z,0.15
2023-04-05T19:00:04.791Z,0.13
2023-04-05T19:03:28.600Z,0.01
2023-04-05T19:06:35.788Z,-0.15
2023-04-05T19:09:41.933Z,-0.22
2023-04-05T19:12:49.494Z,-0.31
2023-04-05T19:16:00.702Z,-0.33
2023-04-05T19:19:09.250Z,-0.39
2023-04-05T19:22:16.148Z,-0.49
2023-04-05T19:25:30.277Z,-0.57
2023-04-05T19:28:36.436Z,-0.66
2023-04-05T19:31:46.042Z,-0.67
2023-04-05T19:34:53.021Z,-0.71
2023-04-05T19:38:01.386Z,-0.71
2023-04-05T19:41:07.502Z,-0.80
2023-04-05T19:44:14.962Z,-0.86
2023-04-05T19:47:38.793Z,-0.91
2023-04-05T19:50:52.867Z,-0.97
2023-04-05T19:54:03.194Z,-1.06
2023-04-05T19:57:11.929Z,-1.16
2023-04-05T20:00:39.401Z,-1.24
2023-04-05T20:03:49.017Z,-1.27
2023-04-05T20:06:59.383Z,-1.33
2023-04-05T20:10:21.198Z,-1.43
2023-04-05T20:13:35.099Z,-1.45
2023-04-05T20:16:41.919Z,-1.54
2023-04-05T20:20:08.623Z,-1.54
2023-04-05T20:23:23.110Z,-1.59
2023-04-05T20:26:34.745Z,-1.64
2023-04-05T20:29:42.200Z,-1.69
2023-04-05T20:32:48.318Z,-1.70
2023-04-05T20:35:57.841Z,-1.75
2023-04-05T20:39:06.920Z,-1.87
2023-04-05T20:42:14.637Z,-1.96
2023-04-05T20:45:24.367Z,-1.94
2023-04-05T20:48:31.235Z,-1.94
2023-04-05T20:51:41.971Z,-1.96
2023-04-05T20:54:51.643Z,-1.99
2023-04-05T20:57:57.580Z,-2.03
2023-04-05T21:01:05.383Z,-2.04
2023-04-05T21:04:12.053Z,-2.07
2023-04-05T21:07:22.118Z,-2.12
2023-04-05T21:10:28.114Z,-2.19
2023-04-05T21:13:38.290Z,-2.30
2023-04-05T21:16:44.169Z,-2.32
2023-04-05T21:19:51.010Z,-2.31
2023-04-05T21:23:03.602Z,-2.30
2023-04-05T21:26:13.213Z,-2.31
2023-04-05T21:29:19.264Z,-2.40
2023-04-05T21:32:26.361Z,-2.44
2023-04-05T21:35:35.142Z,-2.49
2023-04-05T21:38:44.614Z,-2.49
2023-04-05T21:41:50.613Z,-2.53
2023-04-05T21:44:58.312Z,-2.54
2023-04-05T21:48:04.333Z,-2.54
2023-04-05T21:51:11.289Z,-2.58
2023-04-05T21:54:19.833Z,-2.61
2023-04-05T21:57:29.218Z,-2.61
2023-04-05T22:00:35.320Z,-2.70
2023-04-05T22:03:42.764Z,-2.72
2023-04-05T22:06:49.036Z,-2.76
2023-04-05T22:09:58.590Z,-2.78
2023-04-05T22:13:04.768Z,-2.80
2023-04-05T22:16:11.948Z,-2.84
2023-04-05T22:19:18.201Z,-2.86
2023-04-05T22:22:25.108Z,-2.89
2023-04-05T22:25:33.843Z,-2.93
2023-04-05T22:28:40.842Z,-2.97
2023-04-05T22:31:47.146Z,-3.00
2023-04-05T22:34:54.190Z,-3.02
2023-04-05T22:38:00.262Z,-3.03
2023-04-05T22:41:09.803Z,-3.04
2023-04-05T22:44:19.925Z,-3.05
2023-04-05T22:47:26.850Z,-3.07
2023-04-05T22:50:32.820Z,-3.09
2023-04-05T22:53:41.054Z,-3.10
2023-04-05T22:56:49.773Z,-3.12
2023-04-05T22:59:59.091Z,-3.15
2023-04-05T23:03:05.346Z,-3.16
2023-04-05T23:06:12.128Z,-3.15
2023-04-05T23:09:21.109Z,-3.16
2023-04-05T23:12:30.504Z,-3.17
2023-04-05T23:15:36.886Z,-3.14
2023-04-05T23:18:43.671Z,-3.13
2023-04-05T23:21:49.630Z,-3.12
2023-04-05T23:24:56.428Z,-3.14
2023-04-05T23:28:04.989Z,-3.20
2023-04-05T23:31:11.957Z,-3.24
2023-04-05T23:34:18.281Z,-3.28
2023-04-05T23:37:25.424Z,-3.31
2023-04-05T23:40:31.397Z,-3.32
2023-04-05T23:43:40.930Z,-3.33
2023-04-05T23:46:47.100Z,-3.35
2023-04-05T23:49:53.995Z,-3.35
2023-04-05T23:53:01.181Z,-3.40
2023-04-05T23:56:09.367Z,-3.41
2023-04-05T23:59:18.847Z,-3.47
